Terminal Aerodrome Forecast
Issued by NWS Wilmington, NC

Home | Current Version | Previous Version | Text Only | Print | Product List | Glossary On
Versions: 1 2 3 4 5 6 7 8 9 10 11 12 13 14 15 16
000
FTUS42 KILM 300533
TAFMYR
TAF
KMYR 300533Z 3006/3106 VRB03KT P6SM SCT015
      TEMPO 3006/3010 BKN015
     FM301300 02004KT P6SM BKN250
     FM301500 08009KT P6SM BKN250
     FM301800 12010KT P6SM BKN250
     FM310000 16007KT P6SM SCT250
      AMD LTD TO CLD VIS AND WIND TIL 301100=

USA.gov is the U.S. government's official web portal to all federal, state and local government web resources and services.